createdAt,value
2022-09-17T00:01:47.369Z,11.38
2022-09-17T00:04:15.751Z,11.30
2022-09-17T00:06:44.165Z,11.27
2022-09-17T00:09:12.957Z,11.38
2022-09-17T00:11:43.721Z,11.36
2022-09-17T00:14:17.550Z,11.43
2022-09-17T00:16:49.147Z,11.28
2022-09-17T00:19:20.252Z,11.26
2022-09-17T00:21:48.751Z,11.41
2022-09-17T00:24:18.670Z,11.34
2022-09-17T00:26:47.932Z,11.44
2022-09-17T00:29:17.682Z,11.41
2022-09-17T00:31:46.277Z,11.50
2022-09-17T00:34:14.632Z,11.46
2022-09-17T00:36:43.265Z,11.40
2022-09-17T00:39:15.668Z,11.26
2022-09-17T00:41:44.815Z,11.26
2022-09-17T00:44:54.835Z,11.31
2022-09-17T00:47:31.212Z,11.34
2022-09-17T00:50:05.154Z,11.33
2022-09-17T00:52:40.384Z,11.30
2022-09-17T00:55:15.203Z,11.25
2022-09-17T00:57:45.971Z,11.28
2022-09-17T01:00:17.311Z,11.22
2022-09-17T01:02:46.248Z,11.30
2022-09-17T01:05:15.287Z,11.35
2022-09-17T01:08:00.219Z,11.35
2022-09-17T01:11:03.122Z,11.15
2022-09-17T01:13:44.596Z,11.18
2022-09-17T01:16:22.085Z,11.23
2022-09-17T01:19:06.581Z,11.19
2022-09-17T01:21:52.164Z,11.19
2022-09-17T01:25:09.460Z,11.35
2022-09-17T01:28:18.898Z,11.26
2022-09-17T01:31:37.304Z,11.41
2022-09-17T01:34:15.714Z,11.34
2022-09-17T01:36:56.614Z,11.44
2022-09-17T01:39:36.467Z,11.40
2022-09-17T01:42:17.112Z,11.42
2022-09-17T01:44:54.948Z,11.50
2022-09-17T01:47:29.161Z,11.29
2022-09-17T01:50:02.974Z,11.43
2022-09-17T01:52:34.324Z,11.38
2022-09-17T01:55:07.060Z,11.32
2022-09-17T01:57:41.930Z,11.39
2022-09-17T02:00:13.838Z,11.33
2022-09-17T02:02:49.009Z,11.31
2022-09-17T02:05:22.286Z,11.32
2022-09-17T02:07:55.767Z,11.18
2022-09-17T02:10:28.188Z,11.25
2022-09-17T02:13:02.174Z,11.34
2022-09-17T02:15:36.099Z,11.45
2022-09-17T02:18:12.840Z,11.37
2022-09-17T02:20:46.206Z,11.41
2022-09-17T02:23:19.734Z,11.54
2022-09-17T02:25:54.374Z,11.53
2022-09-17T02:28:29.062Z,11.43
2022-09-17T02:30:57.507Z,11.45
2022-09-17T02:33:28.957Z,11.52
2022-09-17T02:35:57.437Z,11.48
2022-09-17T02:38:28.040Z,11.45
2022-09-17T02:41:07.487Z,11.46
2022-09-17T02:43:43.251Z,11.40
2022-09-17T02:46:35.180Z,11.27
2022-09-17T02:49:21.515Z,11.25
2022-09-17T02:52:02.366Z,11.26
2022-09-17T02:54:40.027Z,11.38
2022-09-17T02:57:17.181Z,11.32
2022-09-17T02:59:53.951Z,11.39
2022-09-17T03:02:26.504Z,11.39
2022-09-17T03:04:57.644Z,11.39
2022-09-17T03:07:29.198Z,11.38
2022-09-17T03:09:58.010Z,11.32
2022-09-17T03:12:26.860Z,11.28
2022-09-17T03:14:55.136Z,11.36
2022-09-17T03:17:23.622Z,11.36
2022-09-17T03:19:51.992Z,11.38
2022-09-17T03:22:21.745Z,11.21
2022-09-17T03:24:50.139Z,11.26
2022-09-17T03:27:18.573Z,11.29
2022-09-17T03:29:46.948Z,11.30
2022-09-17T03:32:15.440Z,11.25
2022-09-17T03:34:43.793Z,11.26
2022-09-17T03:37:12.083Z,11.33
2022-09-17T03:39:41.794Z,11.26
2022-09-17T03:42:10.167Z,11.26
2022-09-17T03:44:41.371Z,11.29
2022-09-17T03:47:12.572Z,11.32
2022-09-17T03:49:40.927Z,11.26
2022-09-17T03:52:09.316Z,11.26
2022-09-17T03:54:37.644Z,11.24
2022-09-17T03:57:07.395Z,11.31
2022-09-17T03:59:35.709Z,11.20
2022-09-17T04:02:04.163Z,11.26
2022-09-17T04:04:32.605Z,11.20
2022-09-17T04:07:01.072Z,11.26
2022-09-17T04:09:30.036Z,11.22
2022-09-17T04:11:58.626Z,11.01
2022-09-17T04:14:28.393Z,11.09
2022-09-17T04:16:56.785Z,10.97
2022-09-17T04:19:25.067Z,10.97
2022-09-17T04:21:53.852Z,11.04
2022-09-17T04:24:22.136Z,11.09
2022-09-17T04:26:50.528Z,10.99
2022-09-17T04:29:18.848Z,10.92
2022-09-17T04:31:48.509Z,10.95
2022-09-17T04:34:16.902Z,11.04
2022-09-17T04:36:45.245Z,11.07
2022-09-17T04:39:13.732Z,10.88
2022-09-17T04:41:42.162Z,10.87
2022-09-17T04:44:10.489Z,10.87
2022-09-17T04:46:38.919Z,10.99
2022-09-17T04:49:08.837Z,10.97
2022-09-17T04:51:37.236Z,11.06
2022-09-17T04:54:06.104Z,11.07
2022-09-17T04:56:34.496Z,10.96
2022-09-17T04:59:02.871Z,10.93
2022-09-17T05:01:31.228Z,11.11
2022-09-17T05:03:59.637Z,11.02
2022-09-17T05:06:29.454Z,11.12
2022-09-17T05:08:57.788Z,11.15
2022-09-17T05:11:26.197Z,11.07
2022-09-17T05:13:54.569Z,10.96
2022-09-17T05:16:23.105Z,10.88
2022-09-17T05:18:51.802Z,10.91
2022-09-17T05:21:20.572Z,11.02
2022-09-17T05:23:50.477Z,10.96
2022-09-17T05:26:18.891Z,10.96
2022-09-17T05:28:47.457Z,11.09
2022-09-17T05:31:15.767Z,10.99
2022-09-17T05:33:44.080Z,11.08
2022-09-17T05:36:12.603Z,10.95
2022-09-17T05:38:40.918Z,10.88
2022-09-17T05:41:10.719Z,11.10
2022-09-17T05:43:39.069Z,10.97
2022-09-17T05:46:07.779Z,10.89
2022-09-17T05:48:36.682Z,10.85
2022-09-17T05:51:05.308Z,10.85
2022-09-17T05:53:33.685Z,10.93
2022-09-17T05:56:02.443Z,11.12
2022-09-17T05:58:34.442Z,10.99
2022-09-17T06:01:02.913Z,11.09
2022-09-17T06:03:31.474Z,10.98
2022-09-17T06:06:01.716Z,11.01
2022-09-17T06:08:30.964Z,11.15
2022-09-17T06:11:02.506Z,11.27
2022-09-17T06:13:40.660Z,11.42
2022-09-17T06:16:09.178Z,11.61
2022-09-17T06:18:37.546Z,11.68
2022-09-17T06:21:06.660Z,11.76
2022-09-17T06:23:37.177Z,11.87
2022-09-17T06:26:07.067Z,11.85
2022-09-17T06:28:41.454Z,11.75
2022-09-17T06:31:12.615Z,11.84
2022-09-17T06:33:41.374Z,11.99
2022-09-17T06:36:14.644Z,11.82
2022-09-17T06:38:43.731Z,11.88
2022-09-17T06:41:12.482Z,11.97
2022-09-17T06:43:42.183Z,12.05
2022-09-17T06:46:11.796Z,12.22
2022-09-17T06:48:40.325Z,12.21
2022-09-17T06:51:11.890Z,12.32
2022-09-17T06:53:41.018Z,12.20
2022-09-17T06:56:10.776Z,12.44
2022-09-17T06:58:41.957Z,12.63
2022-09-17T07:01:11.536Z,12.55
2022-09-17T07:03:42.790Z,12.65
2022-09-17T07:06:12.700Z,12.87
2022-09-17T07:08:41.912Z,13.01
2022-09-17T07:11:10.317Z,13.25
2022-09-17T07:13:38.665Z,13.18
2022-09-17T07:16:08.864Z,13.06
2022-09-17T07:18:37.253Z,13.19
2022-09-17T07:21:07.850Z,13.37
2022-09-17T07:23:37.963Z,13.82
2022-09-17T07:26:09.227Z,14.96
2022-09-17T07:28:40.711Z,15.30
2022-09-17T07:31:15.840Z,15.18
2022-09-17T07:33:45.760Z,15.12
2022-09-17T07:36:17.875Z,15.42
2022-09-17T07:38:47.191Z,15.97
2022-09-17T07:41:17.800Z,15.99
2022-09-17T07:43:46.895Z,16.79
2022-09-17T07:46:19.212Z,16.05
2022-09-17T07:48:47.853Z,16.85
2022-09-17T07:51:18.143Z,16.04
2022-09-17T07:53:47.701Z,15.99
2022-09-17T07:56:16.276Z,15.44
2022-09-17T07:58:44.641Z,15.76
2022-09-17T08:01:15.377Z,15.40
2022-09-17T08:03:49.628Z,14.84
2022-09-17T08:06:20.803Z,14.55
2022-09-17T08:08:50.386Z,14.42
2022-09-17T08:11:44.663Z,14.19
2022-09-17T08:14:13.782Z,14.20
2022-09-17T08:16:42.293Z,13.92
2022-09-17T08:19:12.082Z,13.81
2022-09-17T08:21:40.548Z,13.81
2022-09-17T08:24:09.107Z,13.72
2022-09-17T08:26:38.422Z,13.78
2022-09-17T08:29:07.375Z,13.74
2022-09-17T08:31:35.852Z,13.75
2022-09-17T08:34:08.631Z,13.77
2022-09-17T08:36:38.726Z,14.25
2022-09-17T08:39:07.399Z,14.79
2022-09-17T08:41:50.738Z,15.35
2022-09-17T08:44:27.684Z,16.08
2022-09-17T08:47:02.261Z,16.97
2022-09-17T08:49:35.955Z,16.59
2022-09-17T08:53:04.349Z,17.64
2022-09-17T08:55:41.802Z,17.94
2022-09-17T08:58:43.261Z,17.96
2022-09-17T09:01:32.183Z,18.14
2022-09-17T09:04:56.677Z,18.29
2022-09-17T09:07:29.225Z,18.27
2022-09-17T09:10:11.815Z,18.73
2022-09-17T09:12:43.877Z,18.77
2022-09-17T09:15:31.181Z,19.28
2022-09-17T09:18:04.487Z,19.32
2022-09-17T09:20:45.205Z,18.99
2022-09-17T09:23:21.613Z,18.22
2022-09-17T09:26:05.564Z,17.34
2022-09-17T09:28:45.236Z,16.68
2022-09-17T09:31:29.172Z,16.57
2022-09-17T09:33:58.943Z,16.97
2022-09-17T09:36:31.562Z,17.65
2022-09-17T09:39:04.419Z,18.33
2022-09-17T09:41:40.488Z,18.60
2022-09-17T09:44:14.400Z,17.87
2022-09-17T09:47:19.310Z,17.00
2022-09-17T09:50:16.596Z,16.77
2022-09-17T09:52:59.846Z,16.51
2022-09-17T09:55:49.482Z,16.28
2022-09-17T09:58:27.798Z,16.46
2022-09-17T10:00:57.690Z,16.33
2022-09-17T10:03:32.155Z,16.61
2022-09-17T10:06:03.229Z,16.50
2022-09-17T10:08:34.877Z,16.31
2022-09-17T10:11:06.373Z,16.15
2022-09-17T10:13:36.678Z,16.06
2022-09-17T10:16:21.671Z,15.86
2022-09-17T10:18:56.994Z,15.90
2022-09-17T10:21:33.910Z,15.49
2022-09-17T10:24:04.900Z,15.42
2022-09-17T10:26:36.948Z,15.17
2022-09-17T10:29:07.524Z,15.17
2022-09-17T10:31:50.086Z,15.26
2022-09-17T10:34:24.506Z,15.56
2022-09-17T10:36:53.466Z,15.78
2022-09-17T10:39:36.571Z,15.82
2022-09-17T10:42:07.384Z,15.82
2022-09-17T10:44:37.651Z,15.68
2022-09-17T10:47:15.091Z,15.69
2022-09-17T10:49:47.580Z,15.53
2022-09-17T10:52:26.182Z,15.72
2022-09-17T10:55:23.816Z,15.90
2022-09-17T10:58:14.690Z,15.93
2022-09-17T11:01:03.900Z,16.24
2022-09-17T11:04:21.874Z,16.31
2022-09-17T11:07:13.388Z,15.81
2022-09-17T11:09:54.584Z,16.22
2022-09-17T11:12:38.125Z,16.31
2022-09-17T11:15:25.007Z,16.27
2022-09-17T11:18:26.076Z,16.50
2022-09-17T11:21:29.979Z,16.69
2022-09-17T11:24:44.772Z,16.98
2022-09-17T11:27:31.320Z,16.77
2022-09-17T11:30:19.204Z,16.60
2022-09-17T11:33:13.272Z,16.81
2022-09-17T11:35:48.020Z,16.94
2022-09-17T11:38:25.199Z,16.70
2022-09-17T11:41:02.798Z,17.08
2022-09-17T11:43:34.766Z,16.90
2022-09-17T11:46:09.813Z,16.72
2022-09-17T11:48:46.690Z,15.38
2022-09-17T11:51:29.244Z,15.03
2022-09-17T11:54:06.882Z,14.62
2022-09-17T11:56:40.211Z,14.43
2022-09-17T11:59:22.270Z,14.33
2022-09-17T12:01:58.706Z,14.54
2022-09-17T12:04:45.699Z,14.40
2022-09-17T12:07:33.502Z,14.66
2022-09-17T12:10:21.738Z,15.05
2022-09-17T12:12:56.777Z,15.17
2022-09-17T12:15:29.135Z,15.67
2022-09-17T12:18:31.599Z,15.64
2022-09-17T12:21:04.800Z,15.64
2022-09-17T12:23:39.713Z,15.57
2022-09-17T12:26:29.431Z,15.75
2022-09-17T12:29:07.766Z,16.10
2022-09-17T12:31:51.287Z,16.30
2022-09-17T12:34:32.723Z,16.35
2022-09-17T12:37:10.057Z,16.80
2022-09-17T12:39:59.493Z,17.05
2022-09-17T12:43:01.082Z,16.91
2022-09-17T12:45:50.750Z,16.85
2022-09-17T12:49:02.266Z,16.80
2022-09-17T12:51:54.210Z,17.00
2022-09-17T12:54:58.524Z,16.95
2022-09-17T12:57:41.759Z,16.85
2022-09-17T13:00:13.755Z,17.04
2022-09-17T13:02:47.502Z,16.97
2022-09-17T13:05:42.550Z,16.97
2022-09-17T13:08:36.818Z,16.74
2022-09-17T13:11:41.287Z,16.23
2022-09-17T13:14:24.416Z,16.22
2022-09-17T13:16:59.155Z,16.03
2022-09-17T13:19:38.052Z,16.12
2022-09-17T13:22:23.767Z,15.92
2022-09-17T13:25:13.799Z,16.27
2022-09-17T13:27:43.251Z,16.31
2022-09-17T13:31:04.354Z,16.36
2022-09-17T13:34:40.251Z,16.35
2022-09-17T13:37:20.842Z,16.28
2022-09-17T13:39:58.913Z,15.93
2022-09-17T13:42:35.395Z,15.95
2022-09-17T13:45:34.507Z,16.20
2022-09-17T13:48:25.975Z,16.29
2022-09-17T13:51:48.206Z,16.17
2022-09-17T13:54:41.655Z,16.10
2022-09-17T13:57:14.681Z,16.07
2022-09-17T13:59:59.383Z,15.94
2022-09-17T14:02:37.398Z,15.82
2022-09-17T14:05:40.476Z,15.72
2022-09-17T14:08:31.576Z,15.68
2022-09-17T14:11:03.626Z,15.66
2022-09-17T14:13:45.972Z,15.43
2022-09-17T14:16:48.216Z,15.39
2022-09-17T14:19:28.902Z,15.59
2022-09-17T14:22:02.398Z,15.54
2022-09-17T14:24:38.415Z,15.28
2022-09-17T14:27:15.347Z,15.30
2022-09-17T14:30:07.869Z,15.20
2022-09-17T14:32:43.303Z,15.07
2022-09-17T14:35:20.644Z,15.06
2022-09-17T14:37:55.992Z,14.67
2022-09-17T14:40:26.158Z,14.31
2022-09-17T14:42:57.919Z,14.00
2022-09-17T14:45:30.973Z,13.87
2022-09-17T14:48:37.125Z,13.81
2022-09-17T14:51:29.603Z,13.89
2022-09-17T14:54:25.008Z,13.95
2022-09-17T14:56:57.675Z,14.05
2022-09-17T14:59:51.135Z,14.13
2022-09-17T15:02:38.115Z,14.27
2022-09-17T15:05:20.502Z,14.44
2022-09-17T15:07:49.479Z,14.56
2022-09-17T15:10:22.288Z,14.80
2022-09-17T15:12:52.698Z,14.92
2022-09-17T15:15:24.642Z,15.11
2022-09-17T15:17:54.269Z,14.94
2022-09-17T15:20:25.633Z,15.03
2022-09-17T15:23:06.178Z,14.93
2022-09-17T15:25:38.001Z,14.77
2022-09-17T15:28:18.385Z,14.60
2022-09-17T15:30:51.604Z,14.55
2022-09-17T15:33:20.476Z,14.62
2022-09-17T15:36:02.988Z,14.82
2022-09-17T15:38:33.027Z,14.89
2022-09-17T15:41:31.178Z,14.88
2022-09-17T15:44:36.834Z,14.72
2022-09-17T15:47:50.469Z,14.59
2022-09-17T15:50:22.000Z,14.58
2022-09-17T15:52:51.654Z,14.30
2022-09-17T15:55:38.261Z,14.22
2022-09-17T15:58:24.901Z,14.12
2022-09-17T16:01:53.625Z,14.01
2022-09-17T16:04:28.793Z,13.84
2022-09-17T16:07:29.907Z,13.82
2022-09-17T16:09:59.459Z,13.75
2022-09-17T16:12:30.134Z,13.57
2022-09-17T16:15:01.879Z,13.65
2022-09-17T16:17:44.419Z,13.70
2022-09-17T16:20:19.909Z,13.70
2022-09-17T16:22:49.060Z,13.63
2022-09-17T16:25:18.668Z,13.61
2022-09-17T16:27:52.524Z,13.66
2022-09-17T16:30:24.369Z,13.65
2022-09-17T16:32:53.876Z,13.65
2022-09-17T16:35:25.853Z,13.59
2022-09-17T16:37:57.152Z,13.32
2022-09-17T16:40:29.220Z,13.55
2022-09-17T16:43:01.209Z,13.59
2022-09-17T16:45:32.153Z,13.47
2022-09-17T16:48:00.608Z,13.42
2022-09-17T16:50:29.697Z,13.31
2022-09-17T16:53:02.769Z,13.46
2022-09-17T16:55:33.293Z,13.26
2022-09-17T16:58:01.791Z,13.34
2022-09-17T17:00:31.896Z,13.17
2022-09-17T17:03:00.541Z,13.28
2022-09-17T17:05:29.173Z,13.16
2022-09-17T17:07:58.114Z,13.02
2022-09-17T17:10:27.699Z,12.95
2022-09-17T17:12:56.302Z,12.86
2022-09-17T17:15:25.452Z,12.75
2022-09-17T17:17:55.718Z,12.80
2022-09-17T17:20:24.892Z,12.89
2022-09-17T17:22:53.342Z,12.66
2022-09-17T17:25:23.684Z,12.69
2022-09-17T17:27:52.502Z,12.50
2022-09-17T17:30:21.019Z,12.56
2022-09-17T17:32:52.528Z,12.59
2022-09-17T17:35:22.323Z,12.58
2022-09-17T17:37:50.778Z,12.49
2022-09-17T17:40:19.401Z,12.47
2022-09-17T17:42:53.709Z,12.53
2022-09-17T17:45:22.139Z,12.34
2022-09-17T17:47:50.579Z,12.32
2022-09-17T17:50:19.007Z,12.12
2022-09-17T17:52:49.145Z,12.24
2022-09-17T17:55:18.123Z,12.34
2022-09-17T17:57:46.559Z,12.30
2022-09-17T18:00:16.900Z,12.39
2022-09-17T18:02:45.357Z,12.23
2022-09-17T18:05:14.200Z,12.54
2022-09-17T18:07:42.630Z,12.54
2022-09-17T18:10:13.167Z,12.50
2022-09-17T18:12:41.766Z,12.41
2022-09-17T18:15:11.075Z,12.39
2022-09-17T18:17:39.520Z,12.71
2022-09-17T18:20:09.471Z,12.45
2022-09-17T18:22:38.192Z,12.29
2022-09-17T18:25:13.779Z,12.34
2022-09-17T18:27:42.294Z,12.23
2022-09-17T18:30:14.714Z,12.27
2022-09-17T18:32:43.469Z,12.24
2022-09-17T18:35:16.406Z,12.11
2022-09-17T18:37:44.800Z,12.03
2022-09-17T18:40:14.576Z,12.16
2022-09-17T18:42:50.424Z,12.32
2022-09-17T18:45:24.298Z,12.32
2022-09-17T18:48:13.708Z,12.32
2022-09-17T18:53:51.607Z,12.18
2022-09-17T18:56:29.526Z,12.25
2022-09-17T18:59:10.367Z,12.38
2022-09-17T19:01:58.636Z,12.26
2022-09-17T19:04:31.802Z,12.10
2022-09-17T19:07:03.627Z,12.07
2022-09-17T19:09:35.233Z,12.09
2022-09-17T19:12:08.123Z,12.07
2022-09-17T19:14:36.577Z,12.19
2022-09-17T19:17:06.899Z,12.20
2022-09-17T19:19:43.616Z,12.46
2022-09-17T19:22:11.996Z,12.46
2022-09-17T19:24:40.492Z,12.13
2022-09-17T19:27:10.827Z,12.17
2022-09-17T19:29:39.335Z,12.26
2022-09-17T19:32:07.798Z,12.22
2022-09-17T19:34:36.153Z,12.19
2022-09-17T19:37:04.753Z,12.12
2022-09-17T19:39:35.658Z,12.02
2022-09-17T19:42:04.058Z,12.21
2022-09-17T19:44:34.743Z,12.11
2022-09-17T19:47:03.110Z,12.07
2022-09-17T19:49:31.697Z,11.95
2022-09-17T19:52:00.346Z,12.12
2022-09-17T19:54:28.778Z,11.93
2022-09-17T19:56:57.259Z,11.98
2022-09-17T19:59:26.043Z,11.80
2022-09-17T20:01:56.145Z,11.75
2022-09-17T20:04:24.701Z,11.99
2022-09-17T20:06:53.432Z,11.98
2022-09-17T20:09:22.198Z,11.75
2022-09-17T20:11:50.678Z,11.81
2022-09-17T20:14:19.489Z,11.75
2022-09-17T20:16:48.035Z,11.76
2022-09-17T20:19:18.377Z,11.69
2022-09-17T20:21:47.085Z,11.80
2022-09-17T20:24:15.605Z,11.64
2022-09-17T20:26:44.065Z,11.43
2022-09-17T20:29:12.408Z,11.46
2022-09-17T20:31:40.927Z,11.40
2022-09-17T20:34:10.757Z,11.58
2022-09-17T20:36:40.463Z,11.33
2022-09-17T20:39:14.310Z,11.32
2022-09-17T20:41:46.555Z,11.20
2022-09-17T20:44:14.851Z,11.40
2022-09-17T20:46:43.162Z,11.26
2022-09-17T20:49:11.481Z,11.17
2022-09-17T20:51:41.479Z,11.45
2022-09-17T20:54:11.282Z,11.34
2022-09-17T20:56:39.599Z,11.27
2022-09-17T20:59:14.397Z,11.40
2022-09-17T21:01:45.798Z,11.52
2022-09-17T21:04:18.986Z,11.61
2022-09-17T21:06:52.742Z,11.43
2022-09-17T21:09:21.381Z,11.43
2022-09-17T21:11:50.636Z,11.38
2022-09-17T21:14:20.624Z,11.32
2022-09-17T21:16:49.116Z,11.22
2022-09-17T21:19:17.526Z,11.34
2022-09-17T21:21:46.140Z,11.28
2022-09-17T21:24:15.865Z,11.47
2022-09-17T21:26:45.836Z,11.52
2022-09-17T21:29:14.321Z,11.43
2022-09-17T21:31:42.731Z,11.47
2022-09-17T21:34:13.734Z,11.51
2022-09-17T21:36:44.617Z,11.49
2022-09-17T21:39:16.195Z,11.44
2022-09-17T21:41:45.642Z,11.36
2022-09-17T21:44:14.313Z,11.27
2022-09-17T21:46:44.045Z,11.37
2022-09-17T21:49:13.832Z,11.41
2022-09-17T21:51:43.868Z,11.42
2022-09-17T21:54:16.872Z,11.46
2022-09-17T21:56:46.096Z,11.50
2022-09-17T21:59:16.485Z,11.61
2022-09-17T22:01:48.565Z,11.33
2022-09-17T22:04:20.000Z,11.42
2022-09-17T22:06:50.336Z,11.41
2022-09-17T22:09:23.021Z,11.43
2022-09-17T22:11:52.501Z,11.54
2022-09-17T22:14:23.220Z,11.64
2022-09-17T22:16:53.940Z,11.64
2022-09-17T22:19:24.121Z,11.64
2022-09-17T22:21:54.734Z,11.61
2022-09-17T22:24:25.472Z,11.63
2022-09-17T22:26:58.421Z,11.53
2022-09-17T22:29:31.424Z,11.62
2022-09-17T22:31:59.802Z,11.61
2022-09-17T22:34:29.650Z,11.71
2022-09-17T22:36:59.132Z,11.68
2022-09-17T22:39:29.054Z,11.70
2022-09-17T22:41:57.422Z,11.69
2022-09-17T22:44:25.734Z,11.70
2022-09-17T22:46:54.160Z,11.67
2022-09-17T22:49:22.773Z,11.75
2022-09-17T22:51:51.399Z,11.74
2022-09-17T22:54:20.661Z,11.75
2022-09-17T22:56:50.513Z,11.72
2022-09-17T22:59:19.214Z,11.75
2022-09-17T23:01:47.952Z,11.70
2022-09-17T23:04:16.364Z,11.66
2022-09-17T23:06:44.720Z,11.69
2022-09-17T23:09:14.429Z,11.73
2022-09-17T23:11:42.940Z,11.67
2022-09-17T23:14:14.647Z,11.67
2022-09-17T23:16:45.727Z,11.64
2022-09-17T23:19:15.519Z,11.69
2022-09-17T23:21:44.216Z,11.69
2022-09-17T23:24:18.875Z,11.67
2022-09-17T23:26:47.584Z,11.56
2022-09-17T23:29:17.548Z,11.61
2022-09-17T23:31:45.925Z,11.62
2022-09-17T23:34:14.314Z,11.64
2022-09-17T23:36:42.613Z,11.68
2022-09-17T23:39:13.241Z,11.53
2022-09-17T23:41:45.416Z,11.61
2022-09-17T23:44:15.770Z,11.65
2022-09-17T23:46:47.142Z,11.57
2022-09-17T23:49:16.713Z,11.59
2022-09-17T23:51:45.576Z,11.58
2022-09-17T23:54:13.880Z,11.55
2022-09-17T23:56:42.230Z,11.55
2022-09-17T23:59:11.824Z,11.58
